»·PEaware :: N1BD KPDX-KRDD

N1BD :: KPDX-KRDD

FLIGHT INFORMATION

Flight Status: Arrived
Operator: Privately registered:
United States
More flights under this callsign
Pilot: Anonymous 26385 (26385)
Aircraft: SOCATA TBM-900
(TBM9)
More flights by this aircraft type
Origin: KPDX Portland Intl
United States
Destination: KRDD Redding Mun
United States
More flights between these airports :: More routes between these airports
Route: LMT KNZIE
File this flight plan on PilotEdge
Remarks:
Altitude:
(Current/Filed)
31,000ft
Speed:
(Current/Filed)
200kts
Departed: 04-Jan-20 02:42 PM
Arrived: 04-Jan-20 03:56 PM
Distance/Time
Traveled:
305nm/1:13
Distance/Time
To Go:
Arrived

Flight Plot

Page will automatically refresh every two minutes.

Flight plan parsing failed; only flown route is shown


Map Options




Map Legend


Flown Route
Filed Route
Departure Airport
Arrival Airport
Navaid (VOR, NDB)
Fix

Horizontal Profiles

Position Reports

Time Latitude Longitude Heading Altitude Ground
Speed
04-Jan-20 14:27 45.586369 -122.584238 117 32ft 0kts
04-Jan-20 14:28 45.586369 -122.584238 117 32ft 0kts
04-Jan-20 14:29 45.586369 -122.584237 117 32ft 0kts
04-Jan-20 14:30 45.586369 -122.584237 117 32ft 0kts
04-Jan-20 14:31 45.586369 -122.584237 117 32ft 0kts
04-Jan-20 14:32 45.586368 -122.584237 117 32ft 0kts
04-Jan-20 14:33 45.586368 -122.584237 117 32ft 0kts
04-Jan-20 14:34 45.586368 -122.584237 117 32ft 0kts
04-Jan-20 14:35 45.586857 -122.582718 104 32ft 11kts
04-Jan-20 14:36 45.586171 -122.578985 104 32ft 0kts
04-Jan-20 14:37 45.584905 -122.573434 119 32ft 20kts
04-Jan-20 14:38 45.582767 -122.567248 49 32ft 0kts
04-Jan-20 14:39 45.582767 -122.567249 49 32ft 0kts
04-Jan-20 14:39 45.582767 -122.567249 49 32ft 0kts
04-Jan-20 14:40 45.582767 -122.567249 49 32ft 0kts
04-Jan-20 14:42 45.585804 -122.572408 300 32ft 91kts
04-Jan-20 14:42 45.600469 -122.606703 293 1563ft 114kts
04-Jan-20 14:43 45.616175 -122.648821 293 3778ft 123kts
04-Jan-20 14:44 45.629649 -122.691424 252 6027ft 115kts
04-Jan-20 14:45 45.598065 -122.684958 167 8364ft 143kts
04-Jan-20 14:46 45.559868 -122.668056 178 10864ft 145kts
04-Jan-20 14:47 45.518854 -122.655021 182 12982ft 154kts
04-Jan-20 14:48 45.474828 -122.641973 185 15237ft 163kts
04-Jan-20 14:49 45.428189 -122.628411 187 17419ft 176kts
04-Jan-20 14:50 45.376265 -122.613334 186 19377ft 193kts
04-Jan-20 14:51 45.321887 -122.597516 187 21687ft 198kts
04-Jan-20 14:52 45.266490 -122.581482 189 23779ft 202kts
04-Jan-20 14:53 45.209422 -122.565016 189 25711ft 205kts
04-Jan-20 14:54 45.151661 -122.548335 189 27866ft 209kts
04-Jan-20 14:55 45.092194 -122.531267 189 29918ft 219kts
04-Jan-20 14:56 45.030609 -122.513725 187 31486ft 237kts
04-Jan-20 14:57 44.958258 -122.492919 183 31482ft 283kts
04-Jan-20 14:58 44.878630 -122.470038 183 31471ft 300kts
04-Jan-20 14:59 44.795517 -122.446331 182 31480ft 304kts
04-Jan-20 15:00 44.710198 -122.422110 183 31495ft 313kts
04-Jan-20 15:01 44.623410 -122.397568 183 31430ft 312kts
04-Jan-20 15:02 44.536916 -122.373126 182 31467ft 312kts
04-Jan-20 15:03 44.450812 -122.348868 184 31471ft 311kts
04-Jan-20 15:04 44.365139 -122.324743 184 31417ft 308kts
04-Jan-20 15:05 44.280128 -122.301019 184 31468ft 303kts
04-Jan-20 15:06 44.196337 -122.277647 185 31469ft 301kts
04-Jan-20 15:07 44.112531 -122.254334 184 31470ft 300kts
04-Jan-20 15:08 44.029158 -122.231197 185 31469ft 299kts
04-Jan-20 15:09 43.946198 -122.208246 185 31470ft 299kts
04-Jan-20 15:10 43.866211 -122.186180 185 31474ft 299kts
04-Jan-20 15:11 43.783636 -122.163464 184 31472ft 299kts
04-Jan-20 15:12 43.700790 -122.140734 184 31462ft 300kts
04-Jan-20 15:13 43.618003 -122.118075 185 31453ft 300kts
04-Jan-20 15:14 43.535112 -122.095470 185 31446ft 300kts
04-Jan-20 15:15 43.452134 -122.072894 185 31438ft 300kts
04-Jan-20 15:16 43.369145 -122.050387 185 31426ft 301kts
04-Jan-20 15:17 43.285931 -122.027871 185 31428ft 301kts
04-Jan-20 15:18 43.202868 -122.005463 185 31426ft 300kts
04-Jan-20 15:19 43.119895 -121.983147 185 31421ft 299kts
04-Jan-20 15:20 43.036898 -121.960879 185 31414ft 299kts
04-Jan-20 15:21 42.953930 -121.938681 185 31404ft 299kts
04-Jan-20 15:22 42.873744 -121.917286 185 31405ft 298kts
04-Jan-20 15:23 42.790875 -121.895228 185 31405ft 298kts
04-Jan-20 15:24 42.708325 -121.873328 185 31405ft 298kts
04-Jan-20 15:25 42.626036 -121.851550 185 31405ft 298kts
04-Jan-20 15:26 42.543869 -121.829862 185 31405ft 298kts
04-Jan-20 15:27 42.461714 -121.808236 185 31405ft 298kts
04-Jan-20 15:28 42.379346 -121.786613 185 31405ft 298kts
04-Jan-20 15:29 42.297463 -121.765173 185 31405ft 297kts
04-Jan-20 15:30 42.215236 -121.743700 185 31405ft 297kts
04-Jan-20 15:31 42.135588 -121.734601 210 31400ft 259kts
04-Jan-20 15:32 42.065461 -121.762620 210 31130ft 265kts
04-Jan-20 15:33 41.991034 -121.792280 209 29745ft 282kts
04-Jan-20 15:34 41.913658 -121.823031 209 28343ft 289kts
04-Jan-20 15:35 41.835894 -121.853853 209 26954ft 291kts
04-Jan-20 15:36 41.756932 -121.885136 209 25522ft 293kts
04-Jan-20 15:37 41.677159 -121.916619 209 24012ft 298kts
04-Jan-20 15:38 41.596184 -121.948536 209 22493ft 300kts
04-Jan-20 15:39 41.515112 -121.977801 206 20975ft 299kts
04-Jan-20 15:40 41.433643 -122.003745 205 19454ft 298kts
04-Jan-20 15:41 41.351982 -122.029654 205 17927ft 298kts
04-Jan-20 15:42 41.273432 -122.054454 205 17433ft 271kts
04-Jan-20 15:43 41.199555 -122.077903 205 16989ft 273kts
04-Jan-20 15:44 41.123143 -122.101968 203 15305ft 278kts
04-Jan-20 15:45 41.046150 -122.126180 201 13512ft 282kts
04-Jan-20 15:46 40.968391 -122.150594 200 11678ft 282kts
04-Jan-20 15:47 40.892011 -122.174478 195 9871ft 282kts
04-Jan-20 15:48 40.816749 -122.197892 194 8083ft 264kts
04-Jan-20 15:49 40.749590 -122.218826 192 7055ft 238kts
04-Jan-20 15:50 40.684825 -122.238968 191 5435ft 231kts
04-Jan-20 15:51 40.625280 -122.257391 191 5008ft 195kts
04-Jan-20 15:52 40.573727 -122.273370 191 5007ft 178kts
04-Jan-20 15:53 40.532123 -122.302578 138 2371ft 163kts
04-Jan-20 15:54 40.524375 -122.295438 189 770ft 92kts
04-Jan-20 15:55 40.510081 -122.294977 180 495ft 37kts
04-Jan-20 15:56 40.508642 -122.299347 4 495ft 10kts
04-Jan-20 15:57 40.508885 -122.299324 3 495ft 0kts
04-Jan-20 15:58 40.508885 -122.299324 3 495ft 0kts
04-Jan-20 15:59 40.508885 -122.299324 3 495ft 0kts
04-Jan-20 16:00 40.508885 -122.299324 3 495ft 0kts
04-Jan-20 16:01 40.508885 -122.299324 3 495ft 0kts
04-Jan-20 16:02 40.508885 -122.299324 3 495ft 0kts
04-Jan-20 16:03 40.508885 -122.299324 3 495ft 0kts
04-Jan-20 16:04 40.508885 -122.299324 3 495ft 0kts
04-Jan-20 16:05 40.508885 -122.299324 3 495ft 0kts
04-Jan-20 16:06 40.508885 -122.299324 3 495ft 0kts
04-Jan-20 16:07 40.508885 -122.299324 3 495ft 0kts
04-Jan-20 16:08 40.508885 -122.299324 3 495ft 0kts
04-Jan-20 16:09 40.508885 -122.299324 3 495ft 0kts

Navigation Log

Ident Type
Flight plan parsing failed, navigation log unavailable